Lindsay, TX

10:21 PM CST on December 10, 2016 (GMT -0600)
Gainesville Municipal

Weather History for KGLE - October, 2012

Change the Weather History Date:

Thursday, October 25, 2012

  Actual Average (KDTO) Record (KDTO)
Temperature  
Mean Temperature 58 °F -  
Max Temperature 71 °F 72 °F 88 °F (2014)
Min Temperature 46 °F 51 °F 30 °F (2005)
Degree Days  
Heating Degree Days 6    
Growing Degree Days 8 (Base 50)    
Moisture  
Dew Point 54 °F    
Average Humidity 76    
Maximum Humidity 94    
Minimum Humidity 58    
Precipitation  
Precipitation 0.00 in - - ()
Sea Level Pressure  
Sea Level Pressure 29.95 in    
Wind  
Wind Speed 13 mph (SW)    
Max Wind Speed 22 mph    
Max Gust Speed 31 mph    
Visibility 10 miles    
Events Rain    
Averages and records for this station are not official NWS values.
T = Trace of Precipitation, MM = Missing Value Source: NWS Daily Summary

Daily Weather History Graph

Daily Weather History Graph

Search for Another Location

Airport or City:

Trip Planner

Search our weather history database for the weather conditions in past years. The results will help you decide how hot, cold, wet, or windy it might be!

Date:

Astronomy

Oct. 25, 2012 Rise Set
Actual Time 7:42 AM CDT 6:42 PM CDT
Civil Twilight 7:16 AM CDT 7:08 PM CDT
Nautical Twilight 6:47 AM CDT 7:37 PM CDT
Astronomical Twilight 6:18 AM CDT 8:06 PM CDT
Moon 4:21 PM CDT (10/25) 3:50 AM CDT (10/25)
Length of Visible Light 11h 51m
Length of Day
11h 00m
Waxing Gibbous, 84% of the Moon is Illuminated
Oct 25
Waxing Gibbous
Oct 29
Full
Nov 6
Last Quarter
Nov 13
New
Nov 20
First Quarter

Hourly Weather History & Observations

Time (CDT) Temp. Windchill Dew Point Humidity Pressure Visibility Wind Dir Wind Speed Gust Speed Precip Events Conditions
12:15 AM 69.8 °F - 64.4 °F 83% 29.81 in 10.0 mi SSE 12.7 mph - N/A   Clear
12:35 AM 69.8 °F - 64.4 °F 83% 29.81 in 10.0 mi SSE 9.2 mph - N/A   Clear
12:55 AM 69.8 °F - 64.4 °F 83% 29.81 in 10.0 mi SSE 9.2 mph - N/A   Clear
1:15 AM 68.0 °F - 60.8 °F 78% 29.80 in 10.0 mi SSE 12.7 mph - N/A   Clear
1:35 AM 68.0 °F - 60.8 °F 78% 29.81 in 10.0 mi SSE 11.5 mph - N/A   Clear
1:55 AM 68.0 °F - 62.6 °F 83% 29.80 in 10.0 mi SE 12.7 mph - N/A   Clear
2:15 AM 69.8 °F - 62.6 °F 78% 29.80 in 10.0 mi SSE 13.8 mph 18.4 mph N/A   Clear
2:35 AM 69.8 °F - 64.4 °F 83% 29.81 in 10.0 mi SSE 15.0 mph 19.6 mph N/A   Clear
2:55 AM 69.8 °F - 62.6 °F 78% 29.81 in 10.0 mi South 13.8 mph - N/A   Clear
3:15 AM 69.8 °F - 62.6 °F 78% 29.82 in 10.0 mi South 15.0 mph 20.7 mph N/A   Clear
3:35 AM 69.8 °F - 62.6 °F 78% 29.82 in 10.0 mi South 11.5 mph - N/A   Clear
3:55 AM 68.0 °F - 62.6 °F 83% 29.82 in 10.0 mi SSE 13.8 mph 20.7 mph N/A   Clear
4:15 AM 68.0 °F - 62.6 °F 83% 29.82 in 10.0 mi South 12.7 mph - N/A   Clear
4:35 AM 66.2 °F - 62.6 °F 88% 29.82 in 10.0 mi SSE 10.4 mph - N/A   Clear
4:55 AM 66.2 °F - 62.6 °F 88% 29.83 in 10.0 mi South 11.5 mph - N/A   Clear
5:15 AM 64.4 °F - 60.8 °F 88% 29.84 in 10.0 mi South 11.5 mph - N/A   Clear
5:35 AM 64.4 °F - 62.6 °F 94% 29.85 in 10.0 mi South 10.4 mph - N/A   Clear
5:55 AM 64.4 °F - 62.6 °F 94% 29.85 in 10.0 mi SSE 10.4 mph - N/A   Clear
6:15 AM 64.4 °F - 62.6 °F 94% 29.85 in 10.0 mi South 11.5 mph - N/A   Scattered Clouds
6:35 AM 64.4 °F - 62.6 °F 94% 29.85 in 10.0 mi SSE 12.7 mph 19.6 mph N/A   Mostly Cloudy
6:55 AM 64.4 °F - 62.6 °F 94% 29.85 in 10.0 mi South 11.5 mph 17.3 mph N/A   Mostly Cloudy
7:15 AM 64.4 °F - 62.6 °F 94% 29.85 in 10.0 mi SSE 13.8 mph - N/A   Mostly Cloudy
7:35 AM 64.4 °F - 62.6 °F 94% 29.85 in 10.0 mi South 12.7 mph - N/A   Mostly Cloudy
7:55 AM 66.2 °F - 62.6 °F 88% 29.86 in 10.0 mi South 11.5 mph - N/A   Overcast
8:15 AM 68.0 °F - 62.6 °F 83% 29.86 in 10.0 mi South 9.2 mph - N/A   Mostly Cloudy
8:35 AM 68.0 °F - 64.4 °F 88% 29.87 in 10.0 mi South 12.7 mph - N/A   Scattered Clouds
8:55 AM 68.0 °F - 64.4 °F 88% 29.88 in 10.0 mi South 11.5 mph - N/A   Scattered Clouds
9:15 AM 69.8 °F - 64.4 °F 83% 29.90 in 10.0 mi South 12.7 mph - N/A   Scattered Clouds
9:35 AM 69.8 °F - 64.4 °F 83% 29.92 in 10.0 mi South 11.5 mph - N/A   Overcast
9:55 AM 69.8 °F - 64.4 °F 83% 29.92 in 10.0 mi SSW 8.1 mph - N/A   Overcast
10:15 AM 69.8 °F - 64.4 °F 83% 29.92 in 10.0 mi South 10.4 mph - N/A   Overcast
10:35 AM 69.8 °F - 64.4 °F 83% 29.92 in 10.0 mi SSW 10.4 mph - N/A   Overcast
10:55 AM 69.8 °F - 64.4 °F 83% 29.92 in 10.0 mi SSW 11.5 mph - N/A   Overcast
11:15 AM 71.6 °F - 64.4 °F 78% 29.92 in 10.0 mi SSW 11.5 mph 16.1 mph N/A   Overcast
11:35 AM 71.6 °F - 64.4 °F 78% 29.93 in 10.0 mi SSW 13.8 mph 18.4 mph N/A   Overcast
11:55 AM 71.6 °F - 64.4 °F 78% 29.93 in 10.0 mi SSW 10.4 mph - N/A   Overcast
12:15 PM 71.6 °F - 64.4 °F 78% 29.93 in 10.0 mi WSW 6.9 mph - N/A   Overcast
12:35 PM 71.6 °F - 64.4 °F 78% 29.94 in 10.0 mi NW 20.7 mph 31.1 mph N/A   Overcast
12:55 PM 57.2 °F - 51.8 °F 82% 29.95 in 10.0 mi NNW 21.9 mph - N/A   Light Drizzle
1:15 PM 55.4 °F - 50.0 °F 82% 29.97 in 7.0 mi NNW 21.9 mph 27.6 mph N/A Rain Light Rain
1:35 PM 55.4 °F - 50.0 °F 82% 29.97 in 10.0 mi NNW 21.9 mph 28.8 mph N/A   Overcast
1:55 PM 55.4 °F - 48.2 °F 77% 29.98 in 10.0 mi NNW 21.9 mph 25.3 mph N/A   Overcast
2:15 PM 55.4 °F - 46.4 °F 72% 29.99 in 10.0 mi NW 16.1 mph 24.2 mph N/A   Overcast
2:35 PM 55.4 °F - 46.4 °F 72% 29.99 in 10.0 mi NNW 17.3 mph 23.0 mph N/A   Overcast
2:55 PM 55.4 °F - 44.6 °F 67% 29.99 in 10.0 mi NNW 15.0 mph 23.0 mph N/A   Overcast
3:15 PM 55.4 °F - 44.6 °F 67% 29.99 in 10.0 mi NNW 18.4 mph 25.3 mph N/A   Overcast
3:35 PM 55.4 °F - 42.8 °F 63% 30.00 in 10.0 mi NNW 21.9 mph 27.6 mph N/A   Overcast
3:55 PM 57.2 °F - 44.6 °F 63% 30.00 in 10.0 mi NNW 19.6 mph 26.5 mph N/A   Overcast
4:15 PM 57.2 °F - 42.8 °F 59% 30.01 in 10.0 mi NW 17.3 mph 25.3 mph N/A   Mostly Cloudy
4:35 PM 55.4 °F - 42.8 °F 63% 30.02 in 10.0 mi NNW 18.4 mph 26.5 mph N/A   Overcast
4:55 PM 55.4 °F - 42.8 °F 63% 30.02 in 10.0 mi North 15.0 mph 23.0 mph N/A   Overcast
5:15 PM 55.4 °F - 42.8 °F 63% 30.03 in 10.0 mi North 18.4 mph 23.0 mph N/A   Overcast
5:35 PM 55.4 °F - 42.8 °F 63% 30.04 in 10.0 mi NNW 17.3 mph 26.5 mph N/A   Overcast
5:55 PM 55.4 °F - 42.8 °F 63% 30.05 in 10.0 mi North 15.0 mph 21.9 mph N/A   Overcast
6:15 PM 55.4 °F - 41.0 °F 58% 30.05 in 10.0 mi North 13.8 mph 21.9 mph N/A   Overcast
6:35 PM 55.4 °F - 41.0 °F 58% 30.06 in 10.0 mi North 11.5 mph 18.4 mph N/A   Overcast
6:55 PM 53.6 °F - 41.0 °F 62% 30.07 in 10.0 mi North 13.8 mph 19.6 mph N/A   Overcast
7:15 PM 55.4 °F - 41.0 °F 58% 30.07 in 10.0 mi North 10.4 mph - N/A   Overcast
7:35 PM 55.4 °F - 42.8 °F 63% 30.09 in 10.0 mi NNW 9.2 mph - N/A   Overcast
8:15 PM 53.6 °F - 39.2 °F 58% 30.10 in 10.0 mi North 15.0 mph 23.0 mph N/A   Overcast
8:35 PM 51.8 °F - 37.4 °F 58% 30.11 in 10.0 mi North 17.3 mph 23.0 mph N/A   Overcast
8:55 PM 51.8 °F - 39.2 °F 62% 30.12 in 10.0 mi North 17.3 mph 25.3 mph N/A   Overcast
9:15 PM 50.0 °F - 37.4 °F 62% 30.13 in 10.0 mi North 12.7 mph 24.2 mph N/A   Mostly Cloudy
9:35 PM 50.0 °F - 37.4 °F 62% 30.13 in 10.0 mi North 12.7 mph 19.6 mph N/A   Mostly Cloudy
10:15 PM 50.0 °F - 37.4 °F 62% 30.15 in 10.0 mi North 11.5 mph 21.9 mph N/A   Scattered Clouds
10:35 PM 50.0 °F - 39.2 °F 66% 30.14 in 10.0 mi North 12.7 mph 20.7 mph N/A   Scattered Clouds
10:55 PM 50.0 °F - 41.0 °F 71% 30.15 in 10.0 mi North 12.7 mph 17.3 mph N/A   Clear
11:15 PM 46.4 °F 41.5 °F 37.4 °F 71% 30.16 in 10.0 mi North 10.4 mph - N/A   Clear
11:35 PM 46.4 °F 40.4 °F 37.4 °F 71% 30.16 in 10.0 mi North 13.8 mph 20.7 mph N/A   Scattered Clouds
11:55 PM 46.4 °F 41.1 °F 37.4 °F 71% 30.16 in 10.0 mi North 11.5 mph - N/A   Mostly Cloudy